sensor_id;sensor_type;location;lat;lon;timestamp;pressure;altitude;pressure_sealevel;temperature;humidity
30421;BME280;17218;54.070;10.012;2024-02-21T00:02:01;101520.72;;;8.32;100.00
30421;BME280;17218;54.070;10.012;2024-02-21T00:04:27;101507.88;;;8.37;100.00
30421;BME280;17218;54.070;10.012;2024-02-21T00:06:54;101504.53;;;8.44;100.00
30421;BME280;17218;54.070;10.012;2024-02-21T00:09:22;101498.53;;;8.45;100.00
30421;BME280;17218;54.070;10.012;2024-02-21T00:11:48;101498.41;;;8.37;100.00
30421;BME280;17218;54.070;10.012;2024-02-21T00:14:14;101494.81;;;8.26;100.00
30421;BME280;17218;54.070;10.012;2024-02-21T00:16:41;101499.97;;;8.26;100.00
30421;BME280;17218;54.070;10.012;2024-02-21T00:19:07;101494.00;;;8.28;100.00
30421;BME280;17218;54.070;10.012;2024-02-21T00:21:34;101486.28;;;8.30;100.00
30421;BME280;17218;54.070;10.012;2024-02-21T00:24:00;101475.16;;;8.35;100.00
30421;BME280;17218;54.070;10.012;2024-02-21T00:26:28;101470.84;;;8.36;100.00
30421;BME280;17218;54.070;10.012;2024-02-21T00:28:55;101464.81;;;8.34;100.00
30421;BME280;17218;54.070;10.012;2024-02-21T00:31:21;101469.88;;;8.28;100.00
30421;BME280;17218;54.070;10.012;2024-02-21T00:33:48;101460.38;;;8.27;100.00
30421;BME280;17218;54.070;10.012;2024-02-21T00:36:14;101460.50;;;8.33;100.00
30421;BME280;17218;54.070;10.012;2024-02-21T00:38:41;101451.81;;;8.28;100.00
30421;BME280;17218;54.070;10.012;2024-02-21T00:41:07;101463.94;;;8.32;100.00
30421;BME280;17218;54.070;10.012;2024-02-21T00:43:35;101455.34;;;8.36;100.00
30421;BME280;17218;54.070;10.012;2024-02-21T00:46:02;101457.97;;;8.38;100.00
30421;BME280;17218;54.070;10.012;2024-02-21T00:48:28;101441.59;;;8.34;100.00
30421;BME280;17218;54.070;10.012;2024-02-21T00:50:54;101433.97;;;8.45;100.00
30421;BME280;17218;54.070;10.012;2024-02-21T00:53:21;101442.59;;;8.47;100.00
30421;BME280;17218;54.070;10.012;2024-02-21T00:55:47;101424.50;;;8.47;100.00
30421;BME280;17218;54.070;10.012;2024-02-21T00:58:14;101424.50;;;8.47;100.00
30421;BME280;17218;54.070;10.012;2024-02-21T01:00:42;101421.06;;;8.45;100.00
30421;BME280;17218;54.070;10.012;2024-02-21T01:03:08;101425.38;;;8.46;100.00
30421;BME280;17218;54.070;10.012;2024-02-21T01:05:35;101425.47;;;8.52;100.00
30421;BME280;17218;54.070;10.012;2024-02-21T01:08:01;101427.34;;;8.64;100.00
30421;BME280;17218;54.070;10.012;2024-02-21T01:10:28;101408.34;;;8.57;100.00
30421;BME280;17218;54.070;10.012;2024-02-21T01:12:55;101414.31;;;8.56;100.00
30421;BME280;17218;54.070;10.012;2024-02-21T01:15:21;101414.94;;;8.38;100.00
30421;BME280;17218;54.070;10.012;2024-02-21T01:17:49;101418.53;;;8.48;100.00
30421;BME280;17218;54.070;10.012;2024-02-21T01:20:20;101403.06;;;8.51;100.00
30421;BME280;17218;54.070;10.012;2024-02-21T01:22:46;101412.47;;;8.47;100.00
30421;BME280;17218;54.070;10.012;2024-02-21T01:25:13;101413.47;;;8.56;100.00
30421;BME280;17218;54.070;10.012;2024-02-21T01:27:39;101403.00;;;8.46;100.00
30421;BME280;17218;54.070;10.012;2024-02-21T01:30:07;101399.41;;;8.33;100.00
30421;BME280;17218;54.070;10.012;2024-02-21T01:32:33;101414.75;;;8.22;100.00
30421;BME280;17218;54.070;10.012;2024-02-21T01:35:01;101418.13;;;8.17;100.00
30421;BME280;17218;54.070;10.012;2024-02-21T01:37:28;101418.09;;;8.15;100.00
30421;BME280;17218;54.070;10.012;2024-02-21T01:39:54;101412.09;;;8.18;100.00
30421;BME280;17218;54.070;10.012;2024-02-21T01:42:21;101406.16;;;8.25;100.00
30421;BME280;17218;54.070;10.012;2024-02-21T01:44:47;101395.78;;;8.19;100.00
30421;BME280;17218;54.070;10.012;2024-02-21T01:47:14;101389.69;;;8.14;100.00
30421;BME280;17218;54.070;10.012;2024-02-21T01:49:41;101395.69;;;8.13;100.00
30421;BME280;17218;54.070;10.012;2024-02-21T01:52:10;101389.66;;;8.12;100.00
30421;BME280;17218;54.070;10.012;2024-02-21T01:54:39;101386.31;;;8.19;100.00
30421;BME280;17218;54.070;10.012;2024-02-21T01:57:06;101377.84;;;8.30;100.00
30421;BME280;17218;54.070;10.012;2024-02-21T01:59:33;101355.41;;;8.24;100.00
30421;BME280;17218;54.070;10.012;2024-02-21T02:02:02;101320.94;;;8.20;100.00
30421;BME280;17218;54.070;10.012;2024-02-21T02:04:28;101318.28;;;8.16;100.00
30421;BME280;17218;54.070;10.012;2024-02-21T02:06:55;101342.53;;;8.27;100.00
30421;BME280;17218;54.070;10.012;2024-02-21T02:29:34;101303.03;;;8.36;100.00
30421;BME280;17218;54.070;10.012;2024-02-21T02:32:01;101310.88;;;8.42;100.00
30421;BME280;17218;54.070;10.012;2024-02-21T02:34:27;101319.50;;;8.44;100.00
30421;BME280;17218;54.070;10.012;2024-02-21T02:36:54;101316.94;;;8.49;100.00
30421;BME280;17218;54.070;10.012;2024-02-21T02:39:20;101313.41;;;8.38;100.00
30421;BME280;17218;54.070;10.012;2024-02-21T02:41:47;101316.78;;;8.33;100.00
30421;BME280;17218;54.070;10.012;2024-02-21T02:44:13;101313.47;;;8.45;100.00
30421;BME280;17218;54.070;10.012;2024-02-21T02:46:41;101313.66;;;8.58;100.00
30421;BME280;17218;54.070;10.012;2024-02-21T02:49:08;101295.59;;;8.58;100.00
30421;BME280;17218;54.070;10.012;2024-02-21T02:51:34;101305.72;;;8.44;100.00
30421;BME280;17218;54.070;10.012;2024-02-21T02:54:02;101288.63;;;8.55;100.00
30421;BME280;17218;54.070;10.012;2024-02-21T02:56:28;101286.88;;;8.54;100.00
30421;BME280;17218;54.070;10.012;2024-02-21T02:58:55;101284.28;;;8.53;100.00
30421;BME280;17218;54.070;10.012;2024-02-21T03:01:21;101307.50;;;8.50;100.00
30421;BME280;17218;54.070;10.012;2024-02-21T03:03:49;101287.75;;;8.55;100.00
30421;BME280;17218;54.070;10.012;2024-02-21T03:06:15;101298.06;;;8.53;100.00
30421;BME280;17218;54.070;10.012;2024-02-21T03:08:42;101293.88;;;8.62;100.00
30421;BME280;17218;54.070;10.012;2024-02-21T03:11:09;101300.63;;;8.49;100.00
30421;BME280;17218;54.070;10.012;2024-02-21T03:13:36;101298.03;;;8.49;100.00
30421;BME280;17218;54.070;10.012;2024-02-21T03:16:03;101319.41;;;8.37;100.00
30421;BME280;17218;54.070;10.012;2024-02-21T03:18:29;101299.72;;;8.46;100.00
30421;BME280;17218;54.070;10.012;2024-02-21T03:20:57;101322.06;;;8.43;100.00
30421;BME280;17218;54.070;10.012;2024-02-21T03:23:24;101319.44;;;8.40;100.00
30421;BME280;17218;54.070;10.012;2024-02-21T03:25:50;101316.19;;;8.56;100.00
30421;BME280;17218;54.070;10.012;2024-02-21T03:28:17;101308.53;;;8.64;100.00
30421;BME280;17218;54.070;10.012;2024-02-21T03:30:43;101315.28;;;8.54;100.00
30421;BME280;17218;54.070;10.012;2024-02-21T03:33:10;101313.72;;;8.67;100.00
30421;BME280;17218;54.070;10.012;2024-02-21T03:35:36;101299.78;;;8.53;100.00
30421;BME280;17218;54.070;10.012;2024-02-21T03:38:04;101295.59;;;8.61;100.00
30421;BME280;17218;54.070;10.012;2024-02-21T03:40:30;101301.53;;;8.55;100.00
30421;BME280;17218;54.070;10.012;2024-02-21T03:42:57;101301.53;;;8.55;100.00
30421;BME280;17218;54.070;10.012;2024-02-21T03:45:23;101297.19;;;8.54;100.00
30421;BME280;17218;54.070;10.012;2024-02-21T03:47:50;101288.50;;;8.44;100.00
30421;BME280;17218;54.070;10.012;2024-02-21T03:50:16;101292.81;;;8.45;100.00
30421;BME280;17218;54.070;10.012;2024-02-21T03:52:43;101285.94;;;8.46;100.00
30421;BME280;17218;54.070;10.012;2024-02-21T03:55:10;101282.44;;;8.41;100.00
30421;BME280;17218;54.070;10.012;2024-02-21T03:57:37;101286.88;;;8.54;100.00
30421;BME280;17218;54.070;10.012;2024-02-21T04:00:05;101289.44;;;8.51;100.00
30421;BME280;17218;54.070;10.012;2024-02-21T04:02:36;101283.34;;;8.44;100.00
30421;BME280;17218;54.070;10.012;2024-02-21T04:05:03;101291.13;;;8.47;100.00
30421;BME280;17218;54.070;10.012;2024-02-21T04:07:29;101298.19;;;8.63;100.00
30421;BME280;17218;54.070;10.012;2024-02-21T04:09:56;101291.34;;;8.66;100.00
30421;BME280;17218;54.070;10.012;2024-02-21T04:12:23;101298.22;;;8.66;100.00
30421;BME280;17218;54.070;10.012;2024-02-21T04:14:50;101295.69;;;8.70;100.00
30421;BME280;17218;54.070;10.012;2024-02-21T04:20:38;101299.22;;;8.80;100.00
30421;BME280;17218;54.070;10.012;2024-02-21T04:23:04;101299.22;;;8.80;100.00
30421;BME280;17218;54.070;10.012;2024-02-21T04:25:31;101301.84;;;8.83;100.00
30421;BME280;17218;54.070;10.012;2024-02-21T04:27:59;101294.84;;;8.73;100.00
30421;BME280;17218;54.070;10.012;2024-02-21T04:30:25;101294.03;;;8.79;100.00
30421;BME280;17218;54.070;10.012;2024-02-21T04:32:52;101286.28;;;8.80;100.00
30421;BME280;17218;54.070;10.012;2024-02-21T04:35:18;101289.75;;;8.82;100.00
30421;BME280;17218;54.070;10.012;2024-02-21T04:37:45;101292.41;;;8.87;100.00
30421;BME280;17218;54.070;10.012;2024-02-21T04:40:11;101286.28;;;8.77;100.00
30421;BME280;17218;54.070;10.012;2024-02-21T04:42:39;101283.69;;;8.76;100.00
30421;BME280;17218;54.070;10.012;2024-02-21T04:45:08;101266.31;;;8.62;100.00
30421;BME280;17218;54.070;10.012;2024-02-21T04:47:35;101261.16;;;8.62;100.00
30421;BME280;17218;54.070;10.012;2024-02-21T04:50:01;101252.44;;;8.52;100.00
30421;BME280;17218;54.070;10.012;2024-02-21T04:52:28;101254.19;;;8.55;100.00
30421;BME280;17218;54.070;10.012;2024-02-21T04:54:54;101257.56;;;8.51;100.00
30421;BME280;17218;54.070;10.012;2024-02-21T04:57:21;101260.91;;;8.39;100.00
30421;BME280;17218;54.070;10.012;2024-02-21T04:59:47;101260.09;;;8.43;100.00
30421;BME280;17218;54.070;10.012;2024-02-21T05:02:15;101260.03;;;8.37;100.00
30421;BME280;17218;54.070;10.012;2024-02-21T05:04:42;101248.97;;;8.50;100.00
30421;BME280;17218;54.070;10.012;2024-02-21T05:07:09;101257.63;;;8.52;100.00
30421;BME280;17218;54.070;10.012;2024-02-21T05:09:37;101243.06;;;8.57;100.00
30421;BME280;17218;54.070;10.012;2024-02-21T05:12:04;101244.88;;;8.71;100.00
30421;BME280;17218;54.070;10.012;2024-02-21T05:14:30;101237.97;;;8.68;100.00
30421;BME280;17218;54.070;10.012;2024-02-21T05:16:57;101241.47;;;8.72;100.00
30421;BME280;17218;54.070;10.012;2024-02-21T05:19:25;101236.22;;;8.66;100.00
30421;BME280;17218;54.070;10.012;2024-02-21T05:21:51;101242.19;;;8.57;100.00
30421;BME280;17218;54.070;10.012;2024-02-21T05:24:18;101249.00;;;8.55;100.00
30421;BME280;17218;54.070;10.012;2024-02-21T05:26:44;101244.72;;;8.55;100.00
30421;BME280;17218;54.070;10.012;2024-02-21T05:29:11;101247.22;;;8.47;100.00
30421;BME280;17218;54.070;10.012;2024-02-21T05:31:55;101249.72;;;8.38;100.00
30421;BME280;17218;54.070;10.012;2024-02-21T05:34:22;101236.78;;;8.35;100.00
30421;BME280;17218;54.070;10.012;2024-02-21T05:36:50;101248.91;;;8.45;100.00
30421;BME280;17218;54.070;10.012;2024-02-21T05:39:17;101244.75;;;8.57;100.00
30421;BME280;17218;54.070;10.012;2024-02-21T05:41:43;101242.19;;;8.58;100.00
30421;BME280;17218;54.070;10.012;2024-02-21T05:44:10;101240.50;;;8.61;100.00
30421;BME280;17218;54.070;10.012;2024-02-21T05:46:36;101238.88;;;8.70;100.00
30421;BME280;17218;54.070;10.012;2024-02-21T05:49:03;101235.38;;;8.67;100.00
30421;BME280;17218;54.070;10.012;2024-02-21T05:51:32;101241.38;;;8.61;100.00
30421;BME280;17218;54.070;10.012;2024-02-21T05:54:00;101244.84;;;8.68;100.00
30421;BME280;17218;54.070;10.012;2024-02-21T05:56:27;101250.97;;;8.76;100.00
30421;BME280;17218;54.070;10.012;2024-02-21T05:58:53;101239.69;;;8.66;100.00
30421;BME280;17218;54.070;10.012;2024-02-21T06:01:20;101241.34;;;8.59;100.00
30421;BME280;17218;54.070;10.012;2024-02-21T06:03:47;101237.66;;;8.37;100.00
30421;BME280;17218;54.070;10.012;2024-02-21T06:06:13;101243.75;;;8.44;100.00
30421;BME280;17218;54.070;10.012;2024-02-21T06:08:40;101237.69;;;8.39;100.00
30421;BME280;17218;54.070;10.012;2024-02-21T06:11:08;101246.19;;;8.28;100.00
30421;BME280;17218;54.070;10.012;2024-02-21T06:13:38;101242.59;;;8.15;100.00
30421;BME280;17218;54.070;10.012;2024-02-21T06:16:06;101247.66;;;8.06;100.00
30421;BME280;17218;54.070;10.012;2024-02-21T06:18:34;101262.25;;;8.04;100.00
30421;BME280;17218;54.070;10.012;2024-02-21T06:21:01;101262.16;;;7.96;100.00
30421;BME280;17218;54.070;10.012;2024-02-21T06:23:27;101270.03;;;8.07;100.00
30421;BME280;17218;54.070;10.012;2024-02-21T06:25:54;101264.81;;;8.02;100.00
30421;BME280;17218;54.070;10.012;2024-02-21T06:28:22;101268.31;;;8.06;100.00
30421;BME280;17218;54.070;10.012;2024-02-21T06:30:48;101266.66;;;8.14;100.00
30421;BME280;17218;54.070;10.012;2024-02-21T06:33:15;101267.53;;;8.15;100.00
30421;BME280;17218;54.070;10.012;2024-02-21T06:35:41;101257.38;;;8.30;100.00
30421;BME280;17218;54.070;10.012;2024-02-21T06:38:10;101259.88;;;8.21;100.00
30421;BME280;17218;54.070;10.012;2024-02-21T06:40:37;101240.16;;;8.28;100.00
30421;BME280;17218;54.070;10.012;2024-02-21T06:43:05;101249.59;;;8.26;100.00
30421;BME280;17218;54.070;10.012;2024-02-21T06:45:33;101242.44;;;7.99;100.00
30421;BME280;17218;54.070;10.012;2024-02-21T06:48:00;101267.41;;;8.01;100.00
30421;BME280;17218;54.070;10.012;2024-02-21T06:50:26;101267.31;;;7.96;100.00
30421;BME280;17218;54.070;10.012;2024-02-21T06:52:53;101260.38;;;7.92;100.00
30421;BME280;17218;54.070;10.012;2024-02-21T06:55:19;101268.25;;;8.01;100.00
30421;BME280;17218;54.070;10.012;2024-02-21T06:57:46;101270.00;;;8.04;100.00
30421;BME280;17218;54.070;10.012;2024-02-21T07:00:14;101252.72;;;7.95;100.00
30421;BME280;17218;54.070;10.012;2024-02-21T07:02:42;101264.88;;;8.07;100.00
30421;BME280;17218;54.070;10.012;2024-02-21T07:05:09;101248.66;;;8.17;100.00
30421;BME280;17218;54.070;10.012;2024-02-21T07:07:35;101247.84;;;8.23;100.00
30421;BME280;17218;54.070;10.012;2024-02-21T07:10:02;101261.81;;;8.41;100.00
30421;BME280;17218;54.070;10.012;2024-02-21T07:12:29;101247.94;;;8.32;100.00
30421;BME280;17218;54.070;10.012;2024-02-21T07:14:56;101240.25;;;8.39;100.00
30421;BME280;17218;54.070;10.012;2024-02-21T07:17:22;101236.00;;;8.44;100.00
30421;BME280;17218;54.070;10.012;2024-02-21T07:19:50;101218.00;;;8.49;100.00
30421;BME280;17218;54.070;10.012;2024-02-21T07:22:17;101220.47;;;8.38;100.00
30421;BME280;17218;54.070;10.012;2024-02-21T07:24:43;101228.84;;;8.16;100.00
30421;BME280;17218;54.070;10.012;2024-02-21T07:27:10;101221.97;;;8.17;100.00
30421;BME280;17218;54.070;10.012;2024-02-21T07:29:36;101238.41;;;8.25;100.00
30421;BME280;17218;54.070;10.012;2024-02-21T07:32:03;101241.88;;;8.29;100.00
30421;BME280;17218;54.070;10.012;2024-02-21T07:34:30;101246.22;;;8.31;100.00
30421;BME280;17218;54.070;10.012;2024-02-21T07:36:58;101256.34;;;8.14;100.00
30421;BME280;17218;54.070;10.012;2024-02-21T07:39:24;101260.50;;;8.01;100.00
30421;BME280;17218;54.070;10.012;2024-02-21T07:41:51;101275.84;;;7.88;100.00
30421;BME280;17218;54.070;10.012;2024-02-21T07:44:17;101278.56;;;8.01;100.00
30421;BME280;17218;54.070;10.012;2024-02-21T07:46:44;101279.53;;;8.11;100.00
30421;BME280;17218;54.070;10.012;2024-02-21T07:49:10;101283.09;;;8.21;100.00
30421;BME280;17218;54.070;10.012;2024-02-21T07:51:37;101287.38;;;8.19;100.00
30421;BME280;17218;54.070;10.012;2024-02-21T07:54:05;101266.03;;;8.34;100.00
30421;BME280;17218;54.070;10.012;2024-02-21T07:56:31;101259.06;;;8.27;100.00
30421;BME280;17218;54.070;10.012;2024-02-21T07:58:58;101250.56;;;8.35;100.00
30421;BME280;17218;54.070;10.012;2024-02-21T08:01:24;101253.94;;;8.28;100.00
30421;BME280;17218;54.070;10.012;2024-02-21T08:03:51;101246.22;;;8.34;100.00
30421;BME280;17218;54.070;10.012;2024-02-21T08:06:17;101245.34;;;8.31;100.00
30421;BME280;17218;54.070;10.012;2024-02-21T08:08:44;101253.25;;;8.48;100.00
30421;BME280;17218;54.070;10.012;2024-02-21T08:11:12;101243.66;;;8.34;100.00
30421;BME280;17218;54.070;10.012;2024-02-21T08:13:40;101239.31;;;8.30;100.00
30421;BME280;17218;54.070;10.012;2024-02-21T08:16:07;101243.53;;;8.20;100.00
30421;BME280;17218;54.070;10.012;2024-02-21T08:18:33;101244.19;;;8.02;100.00
30421;BME280;17218;54.070;10.012;2024-02-21T08:21:01;101252.72;;;7.95;100.00
30421;BME280;17218;54.070;10.012;2024-02-21T08:23:29;101244.22;;;8.07;100.00
30421;BME280;17218;54.070;10.012;2024-02-21T08:25:56;101230.38;;;7.98;100.00
30421;BME280;17218;54.070;10.012;2024-02-21T08:28:24;101228.75;;;8.10;100.00
30421;BME280;17218;54.070;10.012;2024-02-21T08:30:50;101226.13;;;8.01;100.00
30421;BME280;17218;54.070;10.012;2024-02-21T08:33:17;101215.78;;;8.01;100.00
30421;BME280;17218;54.070;10.012;2024-02-21T08:35:44;101226.22;;;8.11;100.00
30421;BME280;17218;54.070;10.012;2024-02-21T08:38:10;101222.91;;;8.23;100.00
30421;BME280;17218;54.070;10.012;2024-02-21T08:40:37;101215.34;;;8.44;100.00
30421;BME280;17218;54.070;10.012;2024-02-21T08:43:03;101210.91;;;8.29;100.00
30421;BME280;17218;54.070;10.012;2024-02-21T08:45:31;101213.63;;;8.41;100.00
30421;BME280;17218;54.070;10.012;2024-02-21T08:47:58;101209.38;;;8.51;100.00
30421;BME280;17218;54.070;10.012;2024-02-21T08:50:24;101204.31;;;8.57;100.00
30421;BME280;17218;54.070;10.012;2024-02-21T08:52:51;101200.13;;;8.70;100.00
30421;BME280;17218;54.070;10.012;2024-02-21T08:55:17;101201.84;;;8.75;100.00
30421;BME280;17218;54.070;10.012;2024-02-21T08:57:44;101213.06;;;8.77;100.00
30421;BME280;17218;54.070;10.012;2024-02-21T09:00:11;101202.88;;;8.97;100.00
30421;BME280;17218;54.070;10.012;2024-02-21T09:02:39;101217.56;;;9.04;100.00
30421;BME280;17218;54.070;10.012;2024-02-21T09:05:08;101197.81;;;9.14;100.00
30421;BME280;17218;54.070;10.012;2024-02-21T09:07:34;101184.03;;;9.11;100.00
30421;BME280;17218;54.070;10.012;2024-02-21T09:10:01;101192.53;;;8.97;100.00
30421;BME280;17218;54.070;10.012;2024-02-21T09:12:28;101194.44;;;9.23;100.00
30421;BME280;17218;54.070;10.012;2024-02-21T09:14:54;101185.84;;;9.32;100.00
30421;BME280;17218;54.070;10.012;2024-02-21T09:17:21;101180.72;;;9.41;100.00
30421;BME280;17218;54.070;10.012;2024-02-21T09:19:49;101184.34;;;9.78;100.00
30421;BME280;17218;54.070;10.012;2024-02-21T09:22:16;101174.06;;;10.09;100.00
30421;BME280;17218;54.070;10.012;2024-02-21T09:24:42;101165.44;;;10.23;100.00
30421;BME280;17218;54.070;10.012;2024-02-21T09:27:09;101160.22;;;10.02;100.00
30421;BME280;17218;54.070;10.012;2024-02-21T09:29:35;101160.22;;;9.84;100.00
30421;BME280;17218;54.070;10.012;2024-02-21T09:32:02;101144.56;;;9.48;100.00
30421;BME280;17218;54.070;10.012;2024-02-21T09:34:29;101160.91;;;9.40;100.00
30421;BME280;17218;54.070;10.012;2024-02-21T09:36:57;101153.19;;;9.47;100.00
30421;BME280;17218;54.070;10.012;2024-02-21T09:39:23;101147.28;;;9.87;100.00
30421;BME280;17218;54.070;10.012;2024-02-21T09:41:53;101140.28;;;9.65;100.00
30421;BME280;17218;54.070;10.012;2024-02-21T09:44:24;101138.66;;;10.00;100.00
30421;BME280;17218;54.070;10.012;2024-02-21T09:46:55;101136.09;;;10.32;100.00
30421;BME280;17218;54.070;10.012;2024-02-21T09:49:29;101133.50;;;10.44;100.00
30421;BME280;17218;54.070;10.012;2024-02-21T09:52:00;101133.56;;;10.52;100.00
30421;BME280;17218;54.070;10.012;2024-02-21T09:54:32;101132.59;;;9.97;100.00
30421;BME280;17218;54.070;10.012;2024-02-21T09:56:59;101130.91;;;10.35;100.00
30421;BME280;17218;54.070;10.012;2024-02-21T09:59:27;101146.47;;;10.50;100.00
30421;BME280;17218;54.070;10.012;2024-02-21T10:01:54;101141.31;;;10.57;100.00
30421;BME280;17218;54.070;10.012;2024-02-21T10:04:21;101147.31;;;10.45;100.00
30421;BME280;17218;54.070;10.012;2024-02-21T10:06:47;101146.41;;;10.00;100.00
30421;BME280;17218;54.070;10.012;2024-02-21T10:09:22;101139.53;;;9.98;100.00
30421;BME280;17218;54.070;10.012;2024-02-21T10:11:49;101140.38;;;10.01;100.00
30421;BME280;17218;54.070;10.012;2024-02-21T10:14:16;101144.72;;;10.18;100.00
30421;BME280;17218;54.070;10.012;2024-02-21T10:16:43;101142.97;;;10.01;100.00
30421;BME280;17218;54.070;10.012;2024-02-21T10:19:16;101139.47;;;9.82;100.00
30421;BME280;17218;54.070;10.012;2024-02-21T10:21:43;101136.84;;;9.62;100.00
30421;BME280;17218;54.070;10.012;2024-02-21T10:24:12;101148.09;;;9.86;100.00
30421;BME280;17218;54.070;10.012;2024-02-21T10:26:40;101132.63;;;10.03;100.00
30421;BME280;17218;54.070;10.012;2024-02-21T10:29:06;101139.53;;;10.42;100.00
30421;BME280;17218;54.070;10.012;2024-02-21T10:31:33;101127.41;;;10.89;100.00
30421;BME280;17218;54.070;10.012;2024-02-21T10:34:00;101127.47;;;10.80;100.00
30421;BME280;17218;54.070;10.012;2024-02-21T10:36:29;101123.16;;;10.69;100.00
30421;BME280;17218;54.070;10.012;2024-02-21T10:38:55;101128.31;;;10.77;100.00
30421;BME280;17218;54.070;10.012;2024-02-21T10:41:23;101126.50;;;11.18;100.00
30421;BME280;17218;54.070;10.012;2024-02-21T10:43:53;101123.94;;;11.00;100.00
30421;BME280;17218;54.070;10.012;2024-02-21T10:46:21;101124.75;;;11.17;100.00
30421;BME280;17218;54.070;10.012;2024-02-21T10:48:59;101122.25;;;10.86;100.00
30421;BME280;17218;54.070;10.012;2024-02-21T10:51:31;101123.16;;;10.65;100.00
30421;BME280;17218;54.070;10.012;2024-02-21T10:54:08;101110.19;;;10.66;100.00
30421;BME280;17218;54.070;10.012;2024-02-21T10:56:39;101108.47;;;10.78;100.00
30421;BME280;17218;54.070;10.012;2024-02-21T10:59:08;101107.59;;;10.71;100.00
30421;BME280;17218;54.070;10.012;2024-02-21T11:01:35;101099.78;;;10.88;100.00
30421;BME280;17218;54.070;10.012;2024-02-21T11:04:02;101094.69;;;10.54;100.00
30421;BME280;17218;54.070;10.012;2024-02-21T11:06:31;101089.44;;;10.80;100.00
30421;BME280;17218;54.070;10.012;2024-02-21T11:09:02;101092.00;;;10.91;100.00
30421;BME280;17218;54.070;10.012;2024-02-21T11:11:32;101096.25;;;11.14;100.00
30421;BME280;17218;54.070;10.012;2024-02-21T11:14:19;101077.09;;;11.48;100.00
30421;BME280;17218;54.070;10.012;2024-02-21T11:16:46;101081.47;;;11.33;100.00
30421;BME280;17218;54.070;10.012;2024-02-21T11:19:19;101091.94;;;11.13;100.00
30421;BME280;17218;54.070;10.012;2024-02-21T11:21:46;101080.66;;;11.17;100.00
30421;BME280;17218;54.070;10.012;2024-02-21T11:24:13;101069.44;;;11.14;100.00
30421;BME280;17218;54.070;10.012;2024-02-21T11:26:40;101067.84;;;10.80;100.00
30421;BME280;17218;54.070;10.012;2024-02-21T11:29:08;101066.94;;;10.85;100.00
30421;BME280;17218;54.070;10.012;2024-02-21T11:31:41;101055.72;;;10.82;100.00
30421;BME280;17218;54.070;10.012;2024-02-21T11:34:10;101066.16;;;10.74;100.00
30421;BME280;17218;54.070;10.012;2024-02-21T11:36:46;101060.16;;;10.50;100.00
30421;BME280;17218;54.070;10.012;2024-02-21T11:39:13;101057.56;;;10.48;100.00
30421;BME280;17218;54.070;10.012;2024-02-21T11:41:44;101055.84;;;10.22;100.00
30421;BME280;17218;54.070;10.012;2024-02-21T11:44:10;101065.34;;;10.09;100.00
30421;BME280;17218;54.070;10.012;2024-02-21T11:46:37;101071.38;;;10.24;100.00
30421;BME280;17218;54.070;10.012;2024-02-21T11:49:06;101079.13;;;10.16;100.00
30421;BME280;17218;54.070;10.012;2024-02-21T11:51:34;101063.59;;;10.10;100.00
30421;BME280;17218;54.070;10.012;2024-02-21T11:54:00;101060.13;;;9.95;100.00
30421;BME280;17218;54.070;10.012;2024-02-21T11:56:27;101055.84;;;10.05;100.00
30421;BME280;17218;54.070;10.012;2024-02-21T11:58:54;101067.91;;;10.05;100.00
30421;BME280;17218;54.070;10.012;2024-02-21T12:01:20;101057.56;;;10.03;100.00
30421;BME280;17218;54.070;10.012;2024-02-21T12:03:48;101056.72;;;9.95;100.00
30421;BME280;17218;54.070;10.012;2024-02-21T12:06:17;101058.44;;;9.91;100.00
30421;BME280;17218;54.070;10.012;2024-02-21T12:08:46;101051.50;;;9.65;100.00
30421;BME280;17218;54.070;10.012;2024-02-21T12:11:19;101035.09;;;9.69;100.00
30421;BME280;17218;54.070;10.012;2024-02-21T12:13:46;101035.13;;;9.82;100.00
30421;BME280;17218;54.070;10.012;2024-02-21T12:16:15;101033.41;;;9.98;100.00
30421;BME280;17218;54.070;10.012;2024-02-21T12:18:41;101039.44;;;9.92;100.00
30421;BME280;17218;54.070;10.012;2024-02-21T12:21:09;101037.69;;;10.00;100.00
30421;BME280;17218;54.070;10.012;2024-02-21T12:23:37;101040.31;;;10.02;100.00
30421;BME280;17218;54.070;10.012;2024-02-21T12:26:04;101042.03;;;9.92;100.00
30421;BME280;17218;54.070;10.012;2024-02-21T12:28:31;101031.66;;;9.76;100.00
30421;BME280;17218;54.070;10.012;2024-02-21T12:30:58;101036.84;;;9.72;100.00
30421;BME280;17218;54.070;10.012;2024-02-21T12:33:24;101034.25;;;9.70;100.00
30421;BME280;17218;54.070;10.012;2024-02-21T12:35:51;101037.69;;;9.64;100.00
30421;BME280;17218;54.070;10.012;2024-02-21T12:38:20;101033.34;;;9.52;100.00
30421;BME280;17218;54.070;10.012;2024-02-21T12:40:48;101041.94;;;9.36;100.00
30421;BME280;17218;54.070;10.012;2024-02-21T12:43:14;101031.66;;;9.48;100.00
30421;BME280;17218;54.070;10.012;2024-02-21T12:45:40;101044.53;;;9.29;100.00
30421;BME280;17218;54.070;10.012;2024-02-21T12:48:07;101042.00;;;9.50;100.00
30421;BME280;17218;54.070;10.012;2024-02-21T12:50:34;101029.03;;;9.45;100.00
30421;BME280;17218;54.070;10.012;2024-02-21T12:53:00;101027.31;;;9.33;100.00
30421;BME280;17218;54.070;10.012;2024-02-21T12:55:28;101013.50;;;9.34;100.00
30421;BME280;17218;54.070;10.012;2024-02-21T12:57:56;101027.28;;;9.27;100.00
30421;BME280;17218;54.070;10.012;2024-02-21T13:00:22;101016.97;;;9.41;100.00
30421;BME280;17218;54.070;10.012;2024-02-21T13:02:52;101010.03;;;9.32;100.00